sensor_id;sensor_type;location;lat;lon;timestamp;temperature;humidity
8914;DHT22;4492;48.736;9.092;2023-07-22T00:00:15;13.00;99.90
8914;DHT22;4492;48.736;9.092;2023-07-22T00:02:42;12.90;99.90
8914;DHT22;4492;48.736;9.092;2023-07-22T00:05:08;12.90;99.90
8914;DHT22;4492;48.736;9.092;2023-07-22T00:07:35;12.90;99.90
8914;DHT22;4492;48.736;9.092;2023-07-22T00:10:01;12.80;99.90
8914;DHT22;4492;48.736;9.092;2023-07-22T00:12:26;12.80;99.90
8914;DHT22;4492;48.736;9.092;2023-07-22T00:14:52;12.70;99.90
8914;DHT22;4492;48.736;9.092;2023-07-22T00:17:19;12.70;99.90
8914;DHT22;4492;48.736;9.092;2023-07-22T00:19:46;12.60;99.90
8914;DHT22;4492;48.736;9.092;2023-07-22T00:22:12;12.70;99.90
8914;DHT22;4492;48.736;9.092;2023-07-22T00:24:37;12.50;99.90
8914;DHT22;4492;48.736;9.092;2023-07-22T00:27:03;12.40;99.90
8914;DHT22;4492;48.736;9.092;2023-07-22T00:29:29;12.40;99.90
8914;DHT22;4492;48.736;9.092;2023-07-22T00:31:54;12.30;99.90
8914;DHT22;4492;48.736;9.092;2023-07-22T00:34:20;12.20;99.90
8914;DHT22;4492;48.736;9.092;2023-07-22T00:36:46;12.10;99.90
8914;DHT22;4492;48.736;9.092;2023-07-22T00:39:13;12.00;99.90
8914;DHT22;4492;48.736;9.092;2023-07-22T00:41:39;11.90;99.90
8914;DHT22;4492;48.736;9.092;2023-07-22T00:44:06;11.80;99.90
8914;DHT22;4492;48.736;9.092;2023-07-22T00:46:31;11.70;99.90
8914;DHT22;4492;48.736;9.092;2023-07-22T00:48:57;11.70;99.90
8914;DHT22;4492;48.736;9.092;2023-07-22T00:51:22;11.60;99.90
8914;DHT22;4492;48.736;9.092;2023-07-22T00:53:48;11.60;99.90
8914;DHT22;4492;48.736;9.092;2023-07-22T00:56:14;11.50;99.90
8914;DHT22;4492;48.736;9.092;2023-07-22T00:58:39;11.50;99.90
8914;DHT22;4492;48.736;9.092;2023-07-22T01:01:05;11.50;99.90
8914;DHT22;4492;48.736;9.092;2023-07-22T01:03:31;11.40;99.90
8914;DHT22;4492;48.736;9.092;2023-07-22T01:05:56;11.40;99.90
8914;DHT22;4492;48.736;9.092;2023-07-22T01:08:24;11.40;99.90
8914;DHT22;4492;48.736;9.092;2023-07-22T01:10:49;11.50;99.90
8914;DHT22;4492;48.736;9.092;2023-07-22T01:13:15;11.40;99.90
8914;DHT22;4492;48.736;9.092;2023-07-22T01:15:41;11.30;99.90
8914;DHT22;4492;48.736;9.092;2023-07-22T01:18:07;11.20;99.90
8914;DHT22;4492;48.736;9.092;2023-07-22T01:20:33;11.10;99.90
8914;DHT22;4492;48.736;9.092;2023-07-22T01:23:00;11.10;99.90
8914;DHT22;4492;48.736;9.092;2023-07-22T01:25:26;11.10;99.90
8914;DHT22;4492;48.736;9.092;2023-07-22T01:27:53;11.00;99.90
8914;DHT22;4492;48.736;9.092;2023-07-22T01:30:19;11.00;99.90
8914;DHT22;4492;48.736;9.092;2023-07-22T01:32:45;11.00;99.90
8914;DHT22;4492;48.736;9.092;2023-07-22T01:35:11;10.90;99.90
8914;DHT22;4492;48.736;9.092;2023-07-22T01:37:37;10.90;99.90
8914;DHT22;4492;48.736;9.092;2023-07-22T01:40:03;10.90;99.90
8914;DHT22;4492;48.736;9.092;2023-07-22T01:42:40;10.90;99.90
8914;DHT22;4492;48.736;9.092;2023-07-22T01:45:07;10.80;99.90
8914;DHT22;4492;48.736;9.092;2023-07-22T01:47:36;10.80;99.90
8914;DHT22;4492;48.736;9.092;2023-07-22T01:50:03;10.70;99.90
8914;DHT22;4492;48.736;9.092;2023-07-22T01:52:29;10.70;99.90
8914;DHT22;4492;48.736;9.092;2023-07-22T01:54:55;10.70;99.90
8914;DHT22;4492;48.736;9.092;2023-07-22T01:57:21;10.80;99.90
8914;DHT22;4492;48.736;9.092;2023-07-22T01:59:46;10.90;99.90
8914;DHT22;4492;48.736;9.092;2023-07-22T02:02:12;11.00;99.90
8914;DHT22;4492;48.736;9.092;2023-07-22T02:04:37;11.20;99.90
8914;DHT22;4492;48.736;9.092;2023-07-22T02:07:03;11.30;99.90
8914;DHT22;4492;48.736;9.092;2023-07-22T02:09:29;11.40;99.90
8914;DHT22;4492;48.736;9.092;2023-07-22T02:11:54;11.50;99.90
8914;DHT22;4492;48.736;9.092;2023-07-22T02:14:20;11.60;99.90
8914;DHT22;4492;48.736;9.092;2023-07-22T02:16:45;11.70;99.90
8914;DHT22;4492;48.736;9.092;2023-07-22T02:19:11;11.80;99.90
8914;DHT22;4492;48.736;9.092;2023-07-22T02:21:37;11.90;99.90
8914;DHT22;4492;48.736;9.092;2023-07-22T02:24:02;11.90;99.90
8914;DHT22;4492;48.736;9.092;2023-07-22T02:26:28;11.90;99.90
8914;DHT22;4492;48.736;9.092;2023-07-22T02:28:53;11.90;99.90
8914;DHT22;4492;48.736;9.092;2023-07-22T02:31:20;12.00;99.90
8914;DHT22;4492;48.736;9.092;2023-07-22T02:33:47;12.00;99.90
8914;DHT22;4492;48.736;9.092;2023-07-22T02:36:13;12.00;99.90
8914;DHT22;4492;48.736;9.092;2023-07-22T02:38:38;12.00;99.90
8914;DHT22;4492;48.736;9.092;2023-07-22T02:41:05;12.00;99.90
8914;DHT22;4492;48.736;9.092;2023-07-22T02:43:36;12.00;99.90
8914;DHT22;4492;48.736;9.092;2023-07-22T02:46:02;12.00;99.90
8914;DHT22;4492;48.736;9.092;2023-07-22T02:48:28;12.10;99.90
8914;DHT22;4492;48.736;9.092;2023-07-22T02:50:54;12.10;99.90
8914;DHT22;4492;48.736;9.092;2023-07-22T02:53:20;12.00;99.90
8914;DHT22;4492;48.736;9.092;2023-07-22T02:55:46;12.00;99.90
8914;DHT22;4492;48.736;9.092;2023-07-22T02:58:12;12.00;99.90
8914;DHT22;4492;48.736;9.092;2023-07-22T03:00:37;12.00;99.90
8914;DHT22;4492;48.736;9.092;2023-07-22T03:03:03;12.00;99.90
8914;DHT22;4492;48.736;9.092;2023-07-22T03:05:31;12.00;99.90
8914;DHT22;4492;48.736;9.092;2023-07-22T03:07:57;11.90;99.90
8914;DHT22;4492;48.736;9.092;2023-07-22T03:10:23;12.00;99.90
8914;DHT22;4492;48.736;9.092;2023-07-22T03:12:51;12.00;99.90
8914;DHT22;4492;48.736;9.092;2023-07-22T03:15:20;12.00;99.90
8914;DHT22;4492;48.736;9.092;2023-07-22T03:17:46;12.00;99.90
8914;DHT22;4492;48.736;9.092;2023-07-22T03:20:12;12.00;99.90
8914;DHT22;4492;48.736;9.092;2023-07-22T03:22:40;12.00;99.90
8914;DHT22;4492;48.736;9.092;2023-07-22T03:25:06;12.00;99.90
8914;DHT22;4492;48.736;9.092;2023-07-22T03:27:34;12.00;99.90
8914;DHT22;4492;48.736;9.092;2023-07-22T03:30:01;12.00;99.90
8914;DHT22;4492;48.736;9.092;2023-07-22T03:32:27;12.00;99.90
8914;DHT22;4492;48.736;9.092;2023-07-22T03:34:52;12.00;99.90
8914;DHT22;4492;48.736;9.092;2023-07-22T03:37:18;12.00;99.90
8914;DHT22;4492;48.736;9.092;2023-07-22T03:39:45;12.00;99.90
8914;DHT22;4492;48.736;9.092;2023-07-22T03:42:11;12.00;99.90
8914;DHT22;4492;48.736;9.092;2023-07-22T03:44:37;12.00;99.90
8914;DHT22;4492;48.736;9.092;2023-07-22T03:47:02;12.00;99.90
8914;DHT22;4492;48.736;9.092;2023-07-22T03:49:28;12.10;99.90
8914;DHT22;4492;48.736;9.092;2023-07-22T03:51:54;12.00;99.90
8914;DHT22;4492;48.736;9.092;2023-07-22T03:54:19;12.00;99.90
8914;DHT22;4492;48.736;9.092;2023-07-22T03:56:45;12.00;99.90
8914;DHT22;4492;48.736;9.092;2023-07-22T03:59:10;12.00;99.90
8914;DHT22;4492;48.736;9.092;2023-07-22T04:01:36;12.00;99.90
8914;DHT22;4492;48.736;9.092;2023-07-22T04:04:01;12.10;99.90
8914;DHT22;4492;48.736;9.092;2023-07-22T04:06:27;12.00;99.90
8914;DHT22;4492;48.736;9.092;2023-07-22T04:08:52;12.00;99.90
8914;DHT22;4492;48.736;9.092;2023-07-22T04:11:18;12.10;99.90
8914;DHT22;4492;48.736;9.092;2023-07-22T04:13:43;12.10;99.90
8914;DHT22;4492;48.736;9.092;2023-07-22T04:16:09;12.20;99.90
8914;DHT22;4492;48.736;9.092;2023-07-22T04:18:34;12.20;99.90
8914;DHT22;4492;48.736;9.092;2023-07-22T04:21:00;12.30;99.90
8914;DHT22;4492;48.736;9.092;2023-07-22T04:23:26;12.40;99.90
8914;DHT22;4492;48.736;9.092;2023-07-22T04:25:52;12.40;99.90
8914;DHT22;4492;48.736;9.092;2023-07-22T04:28:18;12.60;99.90
8914;DHT22;4492;48.736;9.092;2023-07-22T04:30:57;12.50;99.90
8914;DHT22;4492;48.736;9.092;2023-07-22T04:33:24;12.70;99.90
8914;DHT22;4492;48.736;9.092;2023-07-22T04:35:52;12.70;99.90
8914;DHT22;4492;48.736;9.092;2023-07-22T04:38:18;12.70;99.90
8914;DHT22;4492;48.736;9.092;2023-07-22T04:40:44;12.80;99.90
8914;DHT22;4492;48.736;9.092;2023-07-22T04:43:09;12.90;99.90
8914;DHT22;4492;48.736;9.092;2023-07-22T04:45:35;12.90;99.90
8914;DHT22;4492;48.736;9.092;2023-07-22T04:48:01;13.00;99.90
8914;DHT22;4492;48.736;9.092;2023-07-22T04:50:27;13.10;99.90
8914;DHT22;4492;48.736;9.092;2023-07-22T04:52:54;13.10;99.90
8914;DHT22;4492;48.736;9.092;2023-07-22T04:55:20;13.10;99.90
8914;DHT22;4492;48.736;9.092;2023-07-22T04:57:46;13.10;99.90
8914;DHT22;4492;48.736;9.092;2023-07-22T05:00:12;13.20;99.90
8914;DHT22;4492;48.736;9.092;2023-07-22T05:02:42;13.20;99.90
8914;DHT22;4492;48.736;9.092;2023-07-22T05:05:09;13.20;99.90
8914;DHT22;4492;48.736;9.092;2023-07-22T05:07:35;13.20;99.90
8914;DHT22;4492;48.736;9.092;2023-07-22T05:10:01;13.20;99.90
8914;DHT22;4492;48.736;9.092;2023-07-22T05:12:27;13.20;99.90
8914;DHT22;4492;48.736;9.092;2023-07-22T05:14:52;13.30;99.90
8914;DHT22;4492;48.736;9.092;2023-07-22T05:17:18;13.40;99.90
8914;DHT22;4492;48.736;9.092;2023-07-22T05:19:43;13.40;99.90
8914;DHT22;4492;48.736;9.092;2023-07-22T05:22:09;13.50;99.90
8914;DHT22;4492;48.736;9.092;2023-07-22T05:24:34;13.60;99.90
8914;DHT22;4492;48.736;9.092;2023-07-22T05:27:00;13.70;99.90
8914;DHT22;4492;48.736;9.092;2023-07-22T05:29:25;13.70;99.90
8914;DHT22;4492;48.736;9.092;2023-07-22T05:31:51;13.80;99.90
8914;DHT22;4492;48.736;9.092;2023-07-22T05:34:16;13.90;99.90
8914;DHT22;4492;48.736;9.092;2023-07-22T05:36:42;14.00;99.90
8914;DHT22;4492;48.736;9.092;2023-07-22T05:39:07;14.10;99.90
8914;DHT22;4492;48.736;9.092;2023-07-22T05:41:33;14.20;99.90
8914;DHT22;4492;48.736;9.092;2023-07-22T05:43:59;14.30;99.90
8914;DHT22;4492;48.736;9.092;2023-07-22T05:46:25;14.40;99.90
8914;DHT22;4492;48.736;9.092;2023-07-22T05:48:50;14.60;99.90
8914;DHT22;4492;48.736;9.092;2023-07-22T05:51:17;14.70;99.90
8914;DHT22;4492;48.736;9.092;2023-07-22T05:53:43;14.80;99.90
8914;DHT22;4492;48.736;9.092;2023-07-22T05:56:08;14.90;99.90
8914;DHT22;4492;48.736;9.092;2023-07-22T05:58:34;15.00;99.90
8914;DHT22;4492;48.736;9.092;2023-07-22T06:01:00;15.10;99.90
8914;DHT22;4492;48.736;9.092;2023-07-22T06:03:25;15.20;99.90
8914;DHT22;4492;48.736;9.092;2023-07-22T06:05:51;15.30;99.90
8914;DHT22;4492;48.736;9.092;2023-07-22T06:08:16;15.30;99.90
8914;DHT22;4492;48.736;9.092;2023-07-22T06:10:42;15.40;99.90
8914;DHT22;4492;48.736;9.092;2023-07-22T06:13:08;15.50;99.90
8914;DHT22;4492;48.736;9.092;2023-07-22T06:15:33;15.60;99.90
8914;DHT22;4492;48.736;9.092;2023-07-22T06:18:00;15.70;99.90
8914;DHT22;4492;48.736;9.092;2023-07-22T06:20:25;15.80;99.90
8914;DHT22;4492;48.736;9.092;2023-07-22T06:22:51;16.00;99.90
8914;DHT22;4492;48.736;9.092;2023-07-22T06:25:17;16.10;99.90
8914;DHT22;4492;48.736;9.092;2023-07-22T06:27:43;16.30;99.90
8914;DHT22;4492;48.736;9.092;2023-07-22T06:30:09;16.40;99.90
8914;DHT22;4492;48.736;9.092;2023-07-22T06:32:37;16.60;99.90
8914;DHT22;4492;48.736;9.092;2023-07-22T06:35:03;16.80;99.90
8914;DHT22;4492;48.736;9.092;2023-07-22T06:37:29;16.90;99.90
8914;DHT22;4492;48.736;9.092;2023-07-22T06:39:54;17.00;99.90
8914;DHT22;4492;48.736;9.092;2023-07-22T06:42:20;17.20;99.90
8914;DHT22;4492;48.736;9.092;2023-07-22T06:44:45;17.30;99.90
8914;DHT22;4492;48.736;9.092;2023-07-22T06:47:11;17.40;99.90
8914;DHT22;4492;48.736;9.092;2023-07-22T06:49:37;17.50;99.90
8914;DHT22;4492;48.736;9.092;2023-07-22T06:52:02;17.70;99.90
8914;DHT22;4492;48.736;9.092;2023-07-22T06:54:28;17.80;99.90
8914;DHT22;4492;48.736;9.092;2023-07-22T06:56:54;18.00;99.90
8914;DHT22;4492;48.736;9.092;2023-07-22T06:59:19;18.00;99.90
8914;DHT22;4492;48.736;9.092;2023-07-22T07:01:45;18.10;99.90
8914;DHT22;4492;48.736;9.092;2023-07-22T07:04:10;18.20;99.90
8914;DHT22;4492;48.736;9.092;2023-07-22T07:06:36;18.30;99.90
8914;DHT22;4492;48.736;9.092;2023-07-22T07:09:03;18.40;99.90
8914;DHT22;4492;48.736;9.092;2023-07-22T07:11:29;18.50;99.90
8914;DHT22;4492;48.736;9.092;2023-07-22T07:13:55;18.60;99.90
8914;DHT22;4492;48.736;9.092;2023-07-22T07:16:31;18.70;99.90
8914;DHT22;4492;48.736;9.092;2023-07-22T07:18:58;18.90;99.30
8914;DHT22;4492;48.736;9.092;2023-07-22T07:21:24;19.00;99.90
8914;DHT22;4492;48.736;9.092;2023-07-22T07:23:51;19.10;99.60
8914;DHT22;4492;48.736;9.092;2023-07-22T07:26:17;19.20;99.00
8914;DHT22;4492;48.736;9.092;2023-07-22T07:28:43;19.30;98.50
8914;DHT22;4492;48.736;9.092;2023-07-22T07:31:09;19.40;98.60
8914;DHT22;4492;48.736;9.092;2023-07-22T07:33:34;19.50;97.80
8914;DHT22;4492;48.736;9.092;2023-07-22T07:36:00;19.60;97.50
8914;DHT22;4492;48.736;9.092;2023-07-22T07:38:26;19.70;97.30
8914;DHT22;4492;48.736;9.092;2023-07-22T07:41:03;19.80;96.30
8914;DHT22;4492;48.736;9.092;2023-07-22T07:43:29;19.90;95.90
8914;DHT22;4492;48.736;9.092;2023-07-22T07:46:19;20.10;96.40
8914;DHT22;4492;48.736;9.092;2023-07-22T07:48:50;20.20;95.90
8914;DHT22;4492;48.736;9.092;2023-07-22T07:51:18;20.30;94.80
8914;DHT22;4492;48.736;9.092;2023-07-22T07:53:45;20.40;95.60
8914;DHT22;4492;48.736;9.092;2023-07-22T07:56:11;20.40;94.90
8914;DHT22;4492;48.736;9.092;2023-07-22T07:58:37;20.50;95.00
8914;DHT22;4492;48.736;9.092;2023-07-22T08:01:03;20.70;95.80
8914;DHT22;4492;48.736;9.092;2023-07-22T08:03:29;20.70;95.00
8914;DHT22;4492;48.736;9.092;2023-07-22T08:05:55;20.80;94.20
8914;DHT22;4492;48.736;9.092;2023-07-22T08:08:21;20.90;95.00
8914;DHT22;4492;48.736;9.092;2023-07-22T08:10:47;21.10;93.20
8914;DHT22;4492;48.736;9.092;2023-07-22T08:13:22;21.20;93.50
8914;DHT22;4492;48.736;9.092;2023-07-22T08:15:47;21.30;92.70
8914;DHT22;4492;48.736;9.092;2023-07-22T08:18:13;21.30;91.00
8914;DHT22;4492;48.736;9.092;2023-07-22T08:20:38;21.30;93.10
8914;DHT22;4492;48.736;9.092;2023-07-22T08:23:04;21.50;91.80
8914;DHT22;4492;48.736;9.092;2023-07-22T08:25:29;21.60;91.30
8914;DHT22;4492;48.736;9.092;2023-07-22T08:27:55;21.70;90.10
8914;DHT22;4492;48.736;9.092;2023-07-22T08:30:20;21.80;90.70
8914;DHT22;4492;48.736;9.092;2023-07-22T08:32:46;21.90;85.20
8914;DHT22;4492;48.736;9.092;2023-07-22T08:35:12;21.80;85.70
8914;DHT22;4492;48.736;9.092;2023-07-22T08:37:37;21.90;83.90
8914;DHT22;4492;48.736;9.092;2023-07-22T08:40:03;22.10;84.30
8914;DHT22;4492;48.736;9.092;2023-07-22T08:42:32;22.30;82.60
8914;DHT22;4492;48.736;9.092;2023-07-22T08:45:01;22.40;79.70
8914;DHT22;4492;48.736;9.092;2023-07-22T08:47:29;22.60;78.30
8914;DHT22;4492;48.736;9.092;2023-07-22T08:49:57;22.80;75.40
8914;DHT22;4492;48.736;9.092;2023-07-22T08:52:23;23.00;75.70
8914;DHT22;4492;48.736;9.092;2023-07-22T08:54:50;23.50;75.00
8914;DHT22;4492;48.736;9.092;2023-07-22T08:57:15;23.80;74.50
8914;DHT22;4492;48.736;9.092;2023-07-22T08:59:42;23.90;70.20
8914;DHT22;4492;48.736;9.092;2023-07-22T09:02:12;23.60;70.30
8914;DHT22;4492;48.736;9.092;2023-07-22T09:04:39;23.20;71.00
8914;DHT22;4492;48.736;9.092;2023-07-22T09:07:08;22.90;70.40
8914;DHT22;4492;48.736;9.092;2023-07-22T09:09:34;22.60;70.20
8914;DHT22;4492;48.736;9.092;2023-07-22T09:12:00;22.70;69.80
8914;DHT22;4492;48.736;9.092;2023-07-22T09:14:26;22.70;69.90
8914;DHT22;4492;48.736;9.092;2023-07-22T09:16:53;22.70;70.30
8914;DHT22;4492;48.736;9.092;2023-07-22T09:19:18;22.90;70.00
8914;DHT22;4492;48.736;9.092;2023-07-22T09:21:44;22.80;72.40
8914;DHT22;4492;48.736;9.092;2023-07-22T09:24:23;22.90;70.20
8914;DHT22;4492;48.736;9.092;2023-07-22T09:26:49;22.80;68.50
8914;DHT22;4492;48.736;9.092;2023-07-22T09:29:15;22.70;69.70
8914;DHT22;4492;48.736;9.092;2023-07-22T09:31:52;22.80;70.70
8914;DHT22;4492;48.736;9.092;2023-07-22T09:34:18;22.90;75.00
8914;DHT22;4492;48.736;9.092;2023-07-22T09:39:15;22.60;72.30
8914;DHT22;4492;48.736;9.092;2023-07-22T09:41:41;22.50;72.20
8914;DHT22;4492;48.736;9.092;2023-07-22T09:44:10;22.70;70.10
8914;DHT22;4492;48.736;9.092;2023-07-22T09:46:36;22.80;71.00
8914;DHT22;4492;48.736;9.092;2023-07-22T09:49:06;23.00;70.40
8914;DHT22;4492;48.736;9.092;2023-07-22T09:51:38;23.20;69.80
8914;DHT22;4492;48.736;9.092;2023-07-22T09:54:05;23.20;68.20
8914;DHT22;4492;48.736;9.092;2023-07-22T09:56:31;23.20;64.80
8914;DHT22;4492;48.736;9.092;2023-07-22T09:59:04;23.30;66.60
8914;DHT22;4492;48.736;9.092;2023-07-22T10:01:31;23.40;67.30
8914;DHT22;4492;48.736;9.092;2023-07-22T10:03:57;23.60;66.10
8914;DHT22;4492;48.736;9.092;2023-07-22T10:06:28;24.00;64.40
8914;DHT22;4492;48.736;9.092;2023-07-22T10:08:56;24.20;68.10
8914;DHT22;4492;48.736;9.092;2023-07-22T10:11:22;24.60;66.40
8914;DHT22;4492;48.736;9.092;2023-07-22T10:13:51;24.70;62.00
8914;DHT22;4492;48.736;9.092;2023-07-22T10:16:18;24.50;62.80
8914;DHT22;4492;48.736;9.092;2023-07-22T10:18:45;24.30;62.30
8914;DHT22;4492;48.736;9.092;2023-07-22T10:21:12;23.90;64.90
8914;DHT22;4492;48.736;9.092;2023-07-22T10:23:38;23.80;64.00
8914;DHT22;4492;48.736;9.092;2023-07-22T10:26:05;23.80;64.10
8914;DHT22;4492;48.736;9.092;2023-07-22T10:28:31;23.80;65.20
8914;DHT22;4492;48.736;9.092;2023-07-22T10:30:57;24.10;64.70
8914;DHT22;4492;48.736;9.092;2023-07-22T10:33:24;24.30;64.70
8914;DHT22;4492;48.736;9.092;2023-07-22T10:36:07;24.40;62.20
8914;DHT22;4492;48.736;9.092;2023-07-22T10:38:35;24.40;62.60
8914;DHT22;4492;48.736;9.092;2023-07-22T10:41:04;24.50;64.60
8914;DHT22;4492;48.736;9.092;2023-07-22T10:43:36;24.60;64.70
8914;DHT22;4492;48.736;9.092;2023-07-22T10:46:12;24.60;63.40
8914;DHT22;4492;48.736;9.092;2023-07-22T10:48:41;24.70;64.00
8914;DHT22;4492;48.736;9.092;2023-07-22T10:51:12;24.80;65.00
8914;DHT22;4492;48.736;9.092;2023-07-22T10:53:56;25.10;61.70
8914;DHT22;4492;48.736;9.092;2023-07-22T10:56:22;25.50;62.10
8914;DHT22;4492;48.736;9.092;2023-07-22T11:04:24;25.90;58.50
8914;DHT22;4492;48.736;9.092;2023-07-22T11:07:02;25.60;58.90
8914;DHT22;4492;48.736;9.092;2023-07-22T11:11:58;25.10;60.80
8914;DHT22;4492;48.736;9.092;2023-07-22T11:14:29;25.00;60.90
8914;DHT22;4492;48.736;9.092;2023-07-22T11:16:57;24.70;60.60
8914;DHT22;4492;48.736;9.092;2023-07-22T11:19:24;24.50;61.90
8914;DHT22;4492;48.736;9.092;2023-07-22T11:21:51;24.30;62.50
8914;DHT22;4492;48.736;9.092;2023-07-22T11:24:18;24.20;64.20
8914;DHT22;4492;48.736;9.092;2023-07-22T11:26:45;24.10;65.70
8914;DHT22;4492;48.736;9.092;2023-07-22T11:29:11;24.20;65.80
8914;DHT22;4492;48.736;9.092;2023-07-22T11:31:39;24.50;65.90
8914;DHT22;4492;48.736;9.092;2023-07-22T11:34:28;24.60;64.70
8914;DHT22;4492;48.736;9.092;2023-07-22T11:36:55;24.60;64.80
8914;DHT22;4492;48.736;9.092;2023-07-22T11:39:22;24.50;65.00
8914;DHT22;4492;48.736;9.092;2023-07-22T11:41:49;24.70;66.40
8914;DHT22;4492;48.736;9.092;2023-07-22T11:44:18;24.80;63.90
8914;DHT22;4492;48.736;9.092;2023-07-22T11:47:10;24.90;62.80
8914;DHT22;4492;48.736;9.092;2023-07-22T11:49:41;25.00;62.80
8914;DHT22;4492;48.736;9.092;2023-07-22T11:52:08;25.10;63.80
8914;DHT22;4492;48.736;9.092;2023-07-22T11:54:39;25.30;63.20
8914;DHT22;4492;48.736;9.092;2023-07-22T11:57:14;25.40;62.80
8914;DHT22;4492;48.736;9.092;2023-07-22T12:02:18;25.50;59.90
8914;DHT22;4492;48.736;9.092;2023-07-22T12:04:56;25.40;61.00
8914;DHT22;4492;48.736;9.092;2023-07-22T12:07:30;25.00;61.50
8914;DHT22;4492;48.736;9.092;2023-07-22T12:09:59;24.70;62.30
8914;DHT22;4492;48.736;9.092;2023-07-22T12:12:37;24.50;63.00
8914;DHT22;4492;48.736;9.092;2023-07-22T12:15:11;24.20;64.30
8914;DHT22;4492;48.736;9.092;2023-07-22T12:18:00;24.20;64.00
8914;DHT22;4492;48.736;9.092;2023-07-22T12:20:27;24.60;62.30
8914;DHT22;4492;48.736;9.092;2023-07-22T12:22:57;24.60;62.70
8914;DHT22;4492;48.736;9.092;2023-07-22T12:25:23;25.00;62.70
8914;DHT22;4492;48.736;9.092;2023-07-22T12:27:49;25.10;58.80
8914;DHT22;4492;48.736;9.092;2023-07-22T12:30:15;25.10;59.30
8914;DHT22;4492;48.736;9.092;2023-07-22T12:32:41;25.40;58.70
8914;DHT22;4492;48.736;9.092;2023-07-22T12:35:07;25.50;58.70
8914;DHT22;4492;48.736;9.092;2023-07-22T12:37:33;25.50;60.30
8914;DHT22;4492;48.736;9.092;2023-07-22T12:39:58;25.90;58.70
8914;DHT22;4492;48.736;9.092;2023-07-22T12:42:24;26.00;58.70
8914;DHT22;4492;48.736;9.092;2023-07-22T12:44:50;26.10;58.60
8914;DHT22;4492;48.736;9.092;2023-07-22T12:47:16;26.20;58.40
8914;DHT22;4492;48.736;9.092;2023-07-22T12:49:42;26.20;57.50
8914;DHT22;4492;48.736;9.092;2023-07-22T12:52:08;26.10;56.30
8914;DHT22;4492;48.736;9.092;2023-07-22T12:54:35;26.20;56.60
8914;DHT22;4492;48.736;9.092;2023-07-22T12:57:01;26.20;56.30
8914;DHT22;4492;48.736;9.092;2023-07-22T12:59:27;25.90;57.40
8914;DHT22;4492;48.736;9.092;2023-07-22T13:01:52;25.70;57.30
8914;DHT22;4492;48.736;9.092;2023-07-22T13:04:19;25.80;57.90
8914;DHT22;4492;48.736;9.092;2023-07-22T13:06:44;25.90;56.50
8914;DHT22;4492;48.736;9.092;2023-07-22T13:09:10;26.30;58.20
8914;DHT22;4492;48.736;9.092;2023-07-22T13:11:35;26.90;55.50
8914;DHT22;4492;48.736;9.092;2023-07-22T13:14:02;26.90;55.10
8914;DHT22;4492;48.736;9.092;2023-07-22T13:16:27;26.70;56.10
8914;DHT22;4492;48.736;9.092;2023-07-22T13:18:53;26.50;56.70
8914;DHT22;4492;48.736;9.092;2023-07-22T13:21:18;26.30;56.60
8914;DHT22;4492;48.736;9.092;2023-07-22T13:23:44;26.60;56.70
8914;DHT22;4492;48.736;9.092;2023-07-22T13:26:10;26.70;55.40
8914;DHT22;4492;48.736;9.092;2023-07-22T13:28:35;26.50;56.30
8914;DHT22;4492;48.736;9.092;2023-07-22T13:31:01;26.60;54.70
8914;DHT22;4492;48.736;9.092;2023-07-22T13:33:26;26.70;55.70
8914;DHT22;4492;48.736;9.092;2023-07-22T13:35:52;26.90;54.20
8914;DHT22;4492;48.736;9.092;2023-07-22T13:38:17;27.20;53.80
8914;DHT22;4492;48.736;9.092;2023-07-22T13:40:43;27.20;53.80
8914;DHT22;4492;48.736;9.092;2023-07-22T13:43:08;27.20;54.70
8914;DHT22;4492;48.736;9.092;2023-07-22T13:45:34;27.20;53.40
8914;DHT22;4492;48.736;9.092;2023-07-22T13:48:00;27.20;53.30
8914;DHT22;4492;48.736;9.092;2023-07-22T13:50:25;27.10;53.90
8914;DHT22;4492;48.736;9.092;2023-07-22T13:52:51;26.80;54.50
8914;DHT22;4492;48.736;9.092;2023-07-22T13:55:17;26.80;54.70
8914;DHT22;4492;48.736;9.092;2023-07-22T13:57:42;27.00;54.00
8914;DHT22;4492;48.736;9.092;2023-07-22T14:00:08;27.30;55.50
8914;DHT22;4492;48.736;9.092;2023-07-22T14:02:35;27.50;55.00
8914;DHT22;4492;48.736;9.092;2023-07-22T14:05:01;27.40;54.20
8914;DHT22;4492;48.736;9.092;2023-07-22T14:07:26;27.60;53.70
8914;DHT22;4492;48.736;9.092;2023-07-22T14:09:52;27.40;53.70
8914;DHT22;4492;48.736;9.092;2023-07-22T14:12:18;26.90;54.20
8914;DHT22;4492;48.736;9.092;2023-07-22T14:14:44;26.40;55.20
8914;DHT22;4492;48.736;9.092;2023-07-22T14:17:09;26.30;55.30
8914;DHT22;4492;48.736;9.092;2023-07-22T14:19:35;26.40;55.00
8914;DHT22;4492;48.736;9.092;2023-07-22T14:22:00;26.60;56.50
8914;DHT22;4492;48.736;9.092;2023-07-22T14:24:26;26.60;56.10
8914;DHT22;4492;48.736;9.092;2023-07-22T14:26:51;26.70;56.00
8914;DHT22;4492;48.736;9.092;2023-07-22T14:29:17;26.80;54.90
8914;DHT22;4492;48.736;9.092;2023-07-22T14:31:43;26.90;55.20
8914;DHT22;4492;48.736;9.092;2023-07-22T14:34:09;27.00;54.60
8914;DHT22;4492;48.736;9.092;2023-07-22T14:36:34;27.20;53.90
8914;DHT22;4492;48.736;9.092;2023-07-22T14:39:00;27.40;53.50
8914;DHT22;4492;48.736;9.092;2023-07-22T14:41:25;27.50;52.60
8914;DHT22;4492;48.736;9.092;2023-07-22T14:43:51;27.50;53.20
8914;DHT22;4492;48.736;9.092;2023-07-22T14:46:16;27.40;52.60
8914;DHT22;4492;48.736;9.092;2023-07-22T14:48:42;27.20;52.00
8914;DHT22;4492;48.736;9.092;2023-07-22T14:51:08;27.00;51.70
8914;DHT22;4492;48.736;9.092;2023-07-22T14:53:33;26.70;52.70
8914;DHT22;4492;48.736;9.092;2023-07-22T14:55:59;26.50;53.40
8914;DHT22;4492;48.736;9.092;2023-07-22T14:58:24;26.30;53.80
8914;DHT22;4492;48.736;9.092;2023-07-22T15:00:50;26.30;53.80
8914;DHT22;4492;48.736;9.092;2023-07-22T15:03:16;26.30;55.30
8914;DHT22;4492;48.736;9.092;2023-07-22T15:05:42;26.20;54.80
8914;DHT22;4492;48.736;9.092;2023-07-22T15:08:07;26.00;55.10
8914;DHT22;4492;48.736;9.092;2023-07-22T15:10:33;25.90;54.70
8914;DHT22;4492;48.736;9.092;2023-07-22T15:12:58;25.70;54.70
8914;DHT22;4492;48.736;9.092;2023-07-22T15:15:24;25.50;54.50
8914;DHT22;4492;48.736;9.092;2023-07-22T15:17:49;25.40;54.90
8914;DHT22;4492;48.736;9.092;2023-07-22T15:20:15;25.50;54.60
8914;DHT22;4492;48.736;9.092;2023-07-22T15:22:40;25.50;54.10
8914;DHT22;4492;48.736;9.092;2023-07-22T15:25:06;25.60;55.10
8914;DHT22;4492;48.736;9.092;2023-07-22T15:27:32;25.90;54.50
8914;DHT22;4492;48.736;9.092;2023-07-22T15:29:57;26.00;54.30
8914;DHT22;4492;48.736;9.092;2023-07-22T15:32:23;26.10;55.00
8914;DHT22;4492;48.736;9.092;2023-07-22T15:34:48;26.20;53.20
8914;DHT22;4492;48.736;9.092;2023-07-22T15:37:14;26.10;53.60
8914;DHT22;4492;48.736;9.092;2023-07-22T15:39:39;26.00;54.00
8914;DHT22;4492;48.736;9.092;2023-07-22T15:42:05;25.90;54.10
8914;DHT22;4492;48.736;9.092;2023-07-22T15:44:31;25.80;54.30
8914;DHT22;4492;48.736;9.092;2023-07-22T15:46:57;25.70;54.70
8914;DHT22;4492;48.736;9.092;2023-07-22T15:49:22;25.80;54.60
8914;DHT22;4492;48.736;9.092;2023-07-22T15:51:48;25.80;55.20
8914;DHT22;4492;48.736;9.092;2023-07-22T15:54:13;25.80;54.10
8914;DHT22;4492;48.736;9.092;2023-07-22T15:56:40;25.90;54.00
8914;DHT22;4492;48.736;9.092;2023-07-22T15:59:06;26.00;54.50
8914;DHT22;4492;48.736;9.092;2023-07-22T16:01:32;26.00;54.30
8914;DHT22;4492;48.736;9.092;2023-07-22T16:03:57;25.90;55.00
8914;DHT22;4492;48.736;9.092;2023-07-22T16:06:23;26.00;54.40
8914;DHT22;4492;48.736;9.092;2023-07-22T16:08:48;26.10;53.80
8914;DHT22;4492;48.736;9.092;2023-07-22T16:11:13;26.10;53.50